Cape Baltic — 9VHL8 — position and weather

sailwx.info

Track history (hours):
 
Tides and Currents Weather Stations Pressure Air Temp Water Temp Dewpoint Dewpoint Depression Visibility Wind Speed Wind Dir Waves Ship Positions

Cape Baltic

Last reported at 2017-Oct-21 21:50 UTC. Time now 2017-Dec-13 09:01 UTC.
Position N 39°09' W 032°15'.
Warning: this ship's position is 52 days out of date.

Length 289 m; draft 9.3 m.

Type: Ship. MMSI: 565030000.

Date/timePositionNaut miles runAvg speedWind from/ knotsBaromVisibWave heightAir tempDewpointWater temp
2017-Oct-21 21:50N 39°09' W 032°15'411.4
2017-Oct-21 21:30N 39°09' W 032°10'611.4
2017-Oct-21 21:00N 39°08' W 032°03'611.3
2017-Oct-21 20:30N 39°08' W 031°56'611.3
2017-Oct-21 20:00N 39°07' W 031°48'611.2
2017-Oct-21 19:30N 39°07' W 031°41'611.4
2017-Oct-21 19:00N 39°06' W 031°34'611.8
2017-Oct-21 18:30N 39°06' W 031°26'611.4
2017-Oct-21 18:00N 39°05' W 031°19'611.6
2017-Oct-21 17:30N 39°05' W 031°12'611.9
2017-Oct-21 17:00N 39°04' W 031°04'612.3
2017-Oct-21 16:31N 39°04' W 030°56'612.5
2017-Oct-21 16:00N 39°04' W 030°48'612.3
2017-Oct-21 15:30N 39°03' W 030°40'1012.3
2017-Oct-21 14:43N 39°02' W 030°28'312.2
2017-Oct-21 14:30N 39°02' W 030°24'1212.1
2017-Oct-21 13:30N 39°01' W 030°09'712.0
2017-Oct-21 12:57N 39°00' W 030°00'612.3
2017-Oct-21 12:30N 39°01' W 029°53'712.3
2017-Oct-21 11:58N 39°03' W 029°45'511.9
2017-Oct-21 11:30N 39°05' W 029°39'712.2
2017-Oct-21 10:58N 39°08' W 029°31'612.2
2017-Oct-21 10:29N 39°10' W 029°24'812.0
2017-Oct-21 09:51N 39°13' W 029°15'412.2
2017-Oct-21 09:29N 39°15' W 029°10'711.8
2017-Oct-21 08:55N 39°18' W 029°02'611.5
2017-Oct-21 08:24N 39°21' W 028°55'511.6
2017-Oct-21 08:00N 39°23' W 028°50'611.7
2017-Oct-21 07:29N 39°25' W 028°42'611.5
2017-Oct-21 06:57N 39°27' W 028°35'611.6
2017-Oct-21 06:26N 39°29' W 028°27'511.3
2017-Oct-21 05:58N 39°30' W 028°21'511.2
2017-Oct-21 05:30N 39°32' W 028°15'611.1
2017-Oct-21 05:00N 39°33' W 028°08'510.7
2017-Oct-21 04:30N 39°34' W 028°01'510.8
2017-Oct-21 04:00N 39°36' W 027°54'510.7
2017-Oct-21 03:30N 39°37' W 027°47'510.4
2017-Oct-21 03:00N 39°38' W 027°41'510.2
2017-Oct-21 02:29N 39°40' W 027°34'7 9.9
2017-Oct-21 01:47N 39°42' W 027°25'277 8.6
2017-Oct-19 17:41N 38°57' W 021°33'1211.5
2017-Oct-19 16:40N 38°53' W 021°18'  
2017-Oct-16 16:59N 35°58' W 005°36'510.2
2017-Oct-16 16:30N 35°59' W 005°30'510.7
2017-Oct-16 16:00N 36°01' W 005°24'612.5
2017-Oct-16 15:30N 36°03' W 005°16'611.6
2017-Oct-16 14:59N 36°04' W 005°09'20212.3
2017-Oct-15 22:34N 36°29' W 001°01'1413.5
2017-Oct-15 21:32N 36°31' W 000°44'013.5
2017-Oct-15 21:30N 36°31' W 000°43'713.3
2017-Oct-15 21:00N 36°33' W 000°35'713.1
2017-Oct-15 20:30N 36°34' W 000°27'712.9
2017-Oct-15 19:59N 36°36' W 000°19'1813.2
2017-Oct-15 18:39N 36°41' E 000°02'313.5
2017-Oct-15 18:28N 36°42' E 000°05'613.4
2017-Oct-15 18:00N 36°44' E 000°12'713.1
2017-Oct-15 17:30N 36°44' E 000°20'713.0
2017-Oct-15 16:58N 36°46' E 000°29'613.0
2017-Oct-15 16:30N 36°47' E 000°36'713.3
2017-Oct-15 16:01N 36°49' E 000°44'713.5
2017-Oct-15 15:31N 36°50' E 000°52'713.4
2017-Oct-15 15:00N 36°51' E 001°01'1313.4
2017-Oct-15 14:00N 36°55' E 001°17'713.1
2017-Oct-15 13:29N 36°56' E 001°25'613.1
2017-Oct-15 13:00N 36°58' E 001°33'713.2
2017-Oct-15 12:30N 36°59' E 001°41'713.2
2017-Oct-15 12:01N 37°01' E 001°49'713.1
2017-Oct-15 11:29N 37°03' E 001°57'713.2
2017-Oct-15 10:58N 37°04' E 002°05'913.2
2017-Oct-15 10:19N 37°06' E 002°16'1013.1
2017-Oct-15 09:35N 37°08' E 002°27'113.3
2017-Oct-15 09:29N 37°08' E 002°29'8113.0
2017-Oct-15 03:15N 37°20' E 004°09'1012.8
2017-Oct-15 02:27N 37°21' E 004°22'1712.9
2017-Oct-15 01:07N 37°23' E 004°44'313.3
2017-Oct-15 00:55N 37°23' E 004°47'613.3
2017-Oct-15 00:30N 37°24' E 004°54'38712.8
2017-Oct-13 18:09N 36°50' E 012°57'1412.4
2017-Oct-13 17:03N 36°44' E 013°13'212.7
2017-Oct-13 16:56N 36°44' E 013°15'612.8
2017-Oct-13 16:30N 36°42' E 013°21'612.6
2017-Oct-13 16:00N 36°39' E 013°29'612.6
2017-Oct-13 15:31N 36°36' E 013°35'612.7
2017-Oct-13 15:01N 36°34' E 013°43'712.7
2017-Oct-13 14:30N 36°31' E 013°50'612.9
2017-Oct-13 14:00N 36°29' E 013°57'712.9
2017-Oct-13 13:30N 36°27' E 014°05'612.8
2017-Oct-13 13:00N 36°24' E 014°12'612.9
2017-Oct-13 12:30N 36°21' E 014°19'713.0
2017-Oct-13 12:00N 36°19' E 014°27'713.0
2017-Oct-13 11:30N 36°17' E 014°34'612.9
2017-Oct-13 11:00N 36°15' E 014°42'612.0
2017-Oct-13 10:30N 36°12' E 014°49'  
Track history (hours):
 
Tides and Currents Weather Stations Pressure Air Temp Water Temp Dewpoint Dewpoint Depression Visibility Wind Speed Wind Dir Waves Ship Positions

Cape Baltic

Last reported at 2017-Oct-21 21:50 UTC. Time now 2017-Dec-13 09:01 UTC.
Position N 39°09' W 032°15'.
Warning: this ship's position is 52 days out of date.

Length 289 m; draft 9.3 m.

Type: Ship. MMSI: 565030000.

Date/timePositionNaut miles runAvg speedWind from/ knotsBaromVisibWave heightAir tempDewpointWater temp
2017-Oct-21 21:50N 39°09' W 032°15'411.4
2017-Oct-21 21:30N 39°09' W 032°10'611.4
2017-Oct-21 21:00N 39°08' W 032°03'611.3
2017-Oct-21 20:30N 39°08' W 031°56'611.3
2017-Oct-21 20:00N 39°07' W 031°48'611.2
2017-Oct-21 19:30N 39°07' W 031°41'611.4
2017-Oct-21 19:00N 39°06' W 031°34'611.8
2017-Oct-21 18:30N 39°06' W 031°26'611.4
2017-Oct-21 18:00N 39°05' W 031°19'611.6
2017-Oct-21 17:30N 39°05' W 031°12'611.9
2017-Oct-21 17:00N 39°04' W 031°04'612.3
2017-Oct-21 16:31N 39°04' W 030°56'612.5
2017-Oct-21 16:00N 39°04' W 030°48'612.3
2017-Oct-21 15:30N 39°03' W 030°40'1012.3
2017-Oct-21 14:43N 39°02' W 030°28'312.2
2017-Oct-21 14:30N 39°02' W 030°24'1212.1
2017-Oct-21 13:30N 39°01' W 030°09'712.0
2017-Oct-21 12:57N 39°00' W 030°00'612.3
2017-Oct-21 12:30N 39°01' W 029°53'712.3
2017-Oct-21 11:58N 39°03' W 029°45'511.9
2017-Oct-21 11:30N 39°05' W 029°39'712.2
2017-Oct-21 10:58N 39°08' W 029°31'612.2
2017-Oct-21 10:29N 39°10' W 029°24'812.0
2017-Oct-21 09:51N 39°13' W 029°15'412.2
2017-Oct-21 09:29N 39°15' W 029°10'711.8
2017-Oct-21 08:55N 39°18' W 029°02'611.5
2017-Oct-21 08:24N 39°21' W 028°55'511.6
2017-Oct-21 08:00N 39°23' W 028°50'611.7
2017-Oct-21 07:29N 39°25' W 028°42'611.5
2017-Oct-21 06:57N 39°27' W 028°35'611.6
2017-Oct-21 06:26N 39°29' W 028°27'511.3
2017-Oct-21 05:58N 39°30' W 028°21'511.2
2017-Oct-21 05:30N 39°32' W 028°15'611.1
2017-Oct-21 05:00N 39°33' W 028°08'510.7
2017-Oct-21 04:30N 39°34' W 028°01'510.8
2017-Oct-21 04:00N 39°36' W 027°54'510.7
2017-Oct-21 03:30N 39°37' W 027°47'510.4
2017-Oct-21 03:00N 39°38' W 027°41'510.2
2017-Oct-21 02:29N 39°40' W 027°34'7 9.9
2017-Oct-21 01:47N 39°42' W 027°25'277 8.6
2017-Oct-19 17:41N 38°57' W 021°33'1211.5
2017-Oct-19 16:40N 38°53' W 021°18'  
2017-Oct-16 16:59N 35°58' W 005°36'510.2
2017-Oct-16 16:30N 35°59' W 005°30'510.7
2017-Oct-16 16:00N 36°01' W 005°24'612.5
2017-Oct-16 15:30N 36°03' W 005°16'611.6
2017-Oct-16 14:59N 36°04' W 005°09'20212.3
2017-Oct-15 22:34N 36°29' W 001°01'1413.5
2017-Oct-15 21:32N 36°31' W 000°44'013.5
2017-Oct-15 21:30N 36°31' W 000°43'713.3
2017-Oct-15 21:00N 36°33' W 000°35'713.1
2017-Oct-15 20:30N 36°34' W 000°27'712.9
2017-Oct-15 19:59N 36°36' W 000°19'1813.2
2017-Oct-15 18:39N 36°41' E 000°02'313.5
2017-Oct-15 18:28N 36°42' E 000°05'613.4
2017-Oct-15 18:00N 36°44' E 000°12'713.1
2017-Oct-15 17:30N 36°44' E 000°20'713.0
2017-Oct-15 16:58N 36°46' E 000°29'613.0
2017-Oct-15 16:30N 36°47' E 000°36'713.3
2017-Oct-15 16:01N 36°49' E 000°44'713.5
2017-Oct-15 15:31N 36°50' E 000°52'713.4
2017-Oct-15 15:00N 36°51' E 001°01'1313.4
2017-Oct-15 14:00N 36°55' E 001°17'713.1
2017-Oct-15 13:29N 36°56' E 001°25'613.1
2017-Oct-15 13:00N 36°58' E 001°33'713.2
2017-Oct-15 12:30N 36°59' E 001°41'713.2
2017-Oct-15 12:01N 37°01' E 001°49'713.1
2017-Oct-15 11:29N 37°03' E 001°57'713.2
2017-Oct-15 10:58N 37°04' E 002°05'913.2
2017-Oct-15 10:19N 37°06' E 002°16'1013.1
2017-Oct-15 09:35N 37°08' E 002°27'113.3
2017-Oct-15 09:29N 37°08' E 002°29'8113.0
2017-Oct-15 03:15N 37°20' E 004°09'1012.8
2017-Oct-15 02:27N 37°21' E 004°22'1712.9
2017-Oct-15 01:07N 37°23' E 004°44'313.3
2017-Oct-15 00:55N 37°23' E 004°47'613.3
2017-Oct-15 00:30N 37°24' E 004°54'38712.8
2017-Oct-13 18:09N 36°50' E 012°57'1412.4
2017-Oct-13 17:03N 36°44' E 013°13'212.7
2017-Oct-13 16:56N 36°44' E 013°15'612.8
2017-Oct-13 16:30N 36°42' E 013°21'612.6
2017-Oct-13 16:00N 36°39' E 013°29'612.6
2017-Oct-13 15:31N 36°36' E 013°35'612.7
2017-Oct-13 15:01N 36°34' E 013°43'712.7
2017-Oct-13 14:30N 36°31' E 013°50'612.9
2017-Oct-13 14:00N 36°29' E 013°57'712.9
2017-Oct-13 13:30N 36°27' E 014°05'612.8
2017-Oct-13 13:00N 36°24' E 014°12'612.9
2017-Oct-13 12:30N 36°21' E 014°19'713.0
2017-Oct-13 12:00N 36°19' E 014°27'713.0
2017-Oct-13 11:30N 36°17' E 014°34'612.9
2017-Oct-13 11:00N 36°15' E 014°42'612.0
2017-Oct-13 10:30N 36°12' E 014°49'  

Dump ship's entire track history